createdAt,value
2022-10-20T00:02:14.161Z,4.80
2022-10-20T00:07:17.093Z,6.40
2022-10-20T00:12:19.835Z,7.60
2022-10-20T00:17:22.599Z,5.90
2022-10-20T00:22:25.398Z,5.80
2022-10-20T00:27:28.645Z,6.40
2022-10-20T00:32:31.412Z,9.00
2022-10-20T00:37:34.221Z,4.90
2022-10-20T00:42:38.161Z,5.80
2022-10-20T00:47:55.546Z,7.20
2022-10-20T00:53:00.368Z,5.00
2022-10-20T00:58:04.633Z,4.30
2022-10-20T01:03:13.117Z,3.50
2022-10-20T01:08:16.136Z,3.90
2022-10-20T01:13:30.381Z,3.70
2022-10-20T01:18:51.205Z,4.00
2022-10-20T01:24:06.191Z,4.00
2022-10-20T01:29:16.560Z,5.60
2022-10-20T01:34:42.413Z,3.80
2022-10-20T01:39:53.407Z,6.30
2022-10-20T01:45:02.046Z,6.60
2022-10-20T01:50:07.659Z,16.90
2022-10-20T01:55:16.152Z,51.40
2022-10-20T02:00:19.053Z,40.30
2022-10-20T02:05:33.939Z,32.10
2022-10-20T02:10:48.826Z,20.60
2022-10-20T02:15:55.926Z,10.90
2022-10-20T02:21:02.930Z,10.80
2022-10-20T02:26:13.408Z,7.70
2022-10-20T02:31:17.643Z,8.50
2022-10-20T02:36:25.261Z,11.10
2022-10-20T02:41:28.165Z,17.80
2022-10-20T02:46:31.375Z,16.00
2022-10-20T02:51:34.895Z,21.10
2022-10-20T02:56:37.695Z,14.00
2022-10-20T03:01:41.296Z,20.10
2022-10-20T03:06:44.220Z,31.60
2022-10-20T03:11:47.847Z,29.80
2022-10-20T03:16:50.642Z,39.60
2022-10-20T03:21:53.548Z,37.30
2022-10-20T03:26:56.349Z,29.70
2022-10-20T03:31:59.150Z,26.20
2022-10-20T03:37:02.433Z,28.30
2022-10-20T03:42:05.267Z,39.00
2022-10-20T03:47:08.097Z,34.20
2022-10-20T03:52:10.975Z,31.70
2022-10-20T03:57:14.491Z,28.80
2022-10-20T04:02:35.021Z,21.00
2022-10-20T04:07:38.220Z,16.30
2022-10-20T04:12:41.126Z,22.10
2022-10-20T04:17:44.249Z,28.20
2022-10-20T04:22:47.136Z,31.10
2022-10-20T04:27:49.946Z,25.80
2022-10-20T04:32:52.741Z,13.60
2022-10-20T04:37:55.542Z,22.80
2022-10-20T04:43:01.212Z,26.50
2022-10-20T04:48:05.548Z,17.60
2022-10-20T04:53:09.651Z,31.10
2022-10-20T04:58:12.486Z,22.60
2022-10-20T05:03:15.292Z,12.80
2022-10-20T05:08:18.088Z,12.00
2022-10-20T05:13:20.990Z,8.00
2022-10-20T05:18:23.997Z,15.80
2022-10-20T05:23:26.799Z,15.60
2022-10-20T05:28:29.812Z,11.90
2022-10-20T05:33:33.466Z,14.60
2022-10-20T05:38:39.619Z,11.60
2022-10-20T05:43:42.818Z,12.10
2022-10-20T05:48:46.952Z,10.70
2022-10-20T05:53:49.752Z,11.40
2022-10-20T05:58:53.170Z,11.50
2022-10-20T06:03:59.294Z,12.20
2022-10-20T06:09:06.490Z,9.60
2022-10-20T06:14:10.463Z,10.20
2022-10-20T06:19:13.798Z,6.90
2022-10-20T06:24:17.213Z,8.50
2022-10-20T06:29:20.425Z,10.20
2022-10-20T06:34:25.522Z,9.90
2022-10-20T06:39:28.486Z,10.00
2022-10-20T06:44:36.714Z,9.20
2022-10-20T06:49:39.517Z,7.80
2022-10-20T06:54:42.426Z,6.90
2022-10-20T06:59:45.224Z,9.20
2022-10-20T07:04:50.274Z,9.80
2022-10-20T07:09:53.287Z,10.70
2022-10-20T07:14:56.118Z,11.50
2022-10-20T07:19:58.887Z,9.80
2022-10-20T07:25:06.401Z,12.50
2022-10-20T07:30:09.718Z,13.30
2022-10-20T07:35:12.624Z,14.30
2022-10-20T07:40:15.586Z,32.40
2022-10-20T07:45:18.536Z,34.40
2022-10-20T07:50:21.433Z,29.40
2022-10-20T07:55:38.106Z,46.70
2022-10-20T08:00:41.784Z,41.10
2022-10-20T08:05:44.692Z,43.90
2022-10-20T08:10:47.697Z,45.70
2022-10-20T08:15:53.373Z,31.10
2022-10-20T08:21:07.543Z,22.80
2022-10-20T08:26:11.870Z,22.60
2022-10-20T08:31:14.977Z,15.10
2022-10-20T08:36:17.885Z,14.20
2022-10-20T08:41:25.700Z,14.40
2022-10-20T08:46:35.777Z,11.60
2022-10-20T08:51:38.886Z,16.30
2022-10-20T08:56:42.503Z,20.30
2022-10-20T09:01:45.438Z,18.80
2022-10-20T09:06:53.842Z,15.60
2022-10-20T09:12:07.501Z,10.90
2022-10-20T09:17:17.883Z,12.90
2022-10-20T09:22:24.474Z,9.10
2022-10-20T09:27:35.714Z,10.70
2022-10-20T09:32:47.998Z,21.00
2022-10-20T09:37:56.940Z,26.10
2022-10-20T09:43:15.511Z,24.90
2022-10-20T09:53:52.043Z,14.20
2022-10-20T09:58:58.018Z,17.50
2022-10-20T10:04:02.257Z,16.20
2022-10-20T10:09:32.805Z,7.20
2022-10-20T10:14:36.807Z,5.20
2022-10-20T10:19:39.741Z,6.70
2022-10-20T10:24:47.722Z,6.20
2022-10-20T10:29:50.819Z,4.00
2022-10-20T10:35:19.334Z,4.70
2022-10-20T10:40:29.418Z,4.70
2022-10-20T10:45:52.225Z,6.40
2022-10-20T10:50:58.533Z,6.90
2022-10-20T10:56:19.802Z,8.70
2022-10-20T11:01:41.083Z,6.80
2022-10-20T11:07:08.759Z,8.90
2022-10-20T11:12:27.128Z,6.50
2022-10-20T11:17:41.502Z,13.10
2022-10-20T11:23:21.621Z,10.20
2022-10-20T11:28:44.477Z,9.60
2022-10-20T11:33:54.009Z,3.40
2022-10-20T11:38:57.425Z,4.50
2022-10-20T11:44:25.012Z,6.10
2022-10-20T11:49:29.081Z,4.00
2022-10-20T11:54:51.753Z,3.90
2022-10-20T12:00:13.085Z,5.50
2022-10-20T12:05:44.109Z,5.10
2022-10-20T12:11:17.746Z,5.80
2022-10-20T12:16:54.768Z,2.80
2022-10-20T12:22:30.153Z,2.30
2022-10-20T12:27:33.124Z,2.60
2022-10-20T12:32:54.660Z,1.60
2022-10-20T12:38:02.525Z,2.40
2022-10-20T12:43:05.691Z,1.90
2022-10-20T12:48:18.425Z,1.70
2022-10-20T12:53:27.167Z,1.70
2022-10-20T12:58:33.161Z,2.70
2022-10-20T13:03:48.441Z,1.70
2022-10-20T13:09:04.022Z,1.80
2022-10-20T13:14:13.906Z,2.10
2022-10-20T13:19:32.381Z,2.70
2022-10-20T13:24:40.551Z,3.70
2022-10-20T13:29:48.419Z,3.60
2022-10-20T13:34:51.742Z,4.10
2022-10-20T13:40:33.063Z,3.10
2022-10-20T13:45:51.105Z,3.00
2022-10-20T13:50:59.340Z,2.30
2022-10-20T13:56:08.417Z,2.30
2022-10-20T14:01:24.704Z,3.80
2022-10-20T14:06:27.617Z,3.30
2022-10-20T14:11:31.785Z,3.30
2022-10-20T14:16:34.748Z,3.30
2022-10-20T14:21:46.349Z,3.60
2022-10-20T14:26:50.493Z,2.50
2022-10-20T14:31:53.962Z,10.00
2022-10-20T14:36:58.847Z,4.70
2022-10-20T14:42:04.624Z,3.60
2022-10-20T14:47:13.361Z,2.90
2022-10-20T14:52:21.749Z,3.10
2022-10-20T14:57:25.109Z,5.10
2022-10-20T15:02:41.533Z,6.40
2022-10-20T15:07:44.434Z,8.80
2022-10-20T15:12:49.298Z,8.10
2022-10-20T15:17:53.519Z,5.00
2022-10-20T15:22:58.479Z,8.10
2022-10-20T15:28:01.494Z,14.40
2022-10-20T15:33:04.485Z,31.60
2022-10-20T15:38:09.648Z,27.50
2022-10-20T15:43:15.109Z,12.80
2022-10-20T15:48:19.037Z,13.60
2022-10-20T15:53:21.941Z,10.60
2022-10-20T15:58:24.844Z,9.20
2022-10-20T16:03:27.647Z,19.40
2022-10-20T16:08:30.828Z,18.30
2022-10-20T16:13:34.828Z,36.10
2022-10-20T16:18:37.790Z,25.40
2022-10-20T16:23:42.576Z,26.50
2022-10-20T16:28:47.694Z,36.50
2022-10-20T16:33:50.510Z,18.80
2022-10-20T16:38:57.913Z,15.80
2022-10-20T16:44:01.323Z,35.30
2022-10-20T16:49:05.420Z,35.90
2022-10-20T16:54:08.258Z,26.40
2022-10-20T16:59:11.469Z,20.80
2022-10-20T17:04:14.378Z,23.10
2022-10-20T17:09:17.281Z,21.90
2022-10-20T17:14:20.284Z,22.20
2022-10-20T17:19:23.190Z,18.90
2022-10-20T17:24:26.100Z,24.40
2022-10-20T17:29:28.997Z,29.00
2022-10-20T17:34:32.412Z,30.20
2022-10-20T17:39:35.623Z,33.80
2022-10-20T17:44:38.838Z,32.40
2022-10-20T17:49:42.356Z,35.00
2022-10-20T17:54:45.261Z,23.40
2022-10-20T17:59:53.289Z,17.00
2022-10-20T18:04:57.723Z,17.40
2022-10-20T18:10:00.630Z,22.70
2022-10-20T18:15:05.433Z,18.40
2022-10-20T18:20:09.012Z,20.50
2022-10-20T18:25:11.798Z,32.30
2022-10-20T18:30:14.844Z,17.60
2022-10-20T18:40:25.424Z,17.30
2022-10-20T18:45:28.417Z,14.80
2022-10-20T18:50:32.675Z,20.10
2022-10-20T18:55:35.836Z,17.40
2022-10-20T19:00:38.717Z,17.40
2022-10-20T19:05:41.692Z,18.70
2022-10-20T19:10:44.797Z,18.10
2022-10-20T19:15:47.700Z,18.70
2022-10-20T19:21:02.181Z,22.80
2022-10-20T19:26:07.130Z,25.70
2022-10-20T19:31:22.017Z,18.50
2022-10-20T19:36:27.069Z,13.00
2022-10-20T19:41:30.075Z,13.40
2022-10-20T19:46:33.286Z,12.30
2022-10-20T19:51:36.395Z,14.60
2022-10-20T19:56:39.706Z,12.90
2022-10-20T20:01:42.613Z,16.20
2022-10-20T20:06:45.524Z,14.50
2022-10-20T20:11:48.528Z,13.50
2022-10-20T20:16:51.425Z,14.40
2022-10-20T20:21:54.329Z,17.80
2022-10-20T20:26:57.337Z,16.50
2022-10-20T20:32:00.754Z,16.40
2022-10-20T20:37:03.658Z,13.40
2022-10-20T20:42:06.561Z,15.80
2022-10-20T20:47:09.473Z,13.80
2022-10-20T20:52:12.397Z,15.10
2022-10-20T20:57:15.298Z,13.20
2022-10-20T21:02:18.280Z,21.20
2022-10-20T21:07:21.501Z,25.20
2022-10-20T21:12:27.907Z,16.20
2022-10-20T21:17:32.832Z,15.70
2022-10-20T21:22:35.833Z,14.90
2022-10-20T21:27:38.963Z,16.60
2022-10-20T21:32:41.850Z,15.10
2022-10-20T21:37:44.753Z,17.00
2022-10-20T21:42:47.559Z,16.10
2022-10-20T21:47:56.155Z,19.30
2022-10-20T21:52:58.997Z,16.90
2022-10-20T21:58:01.900Z,16.90
2022-10-20T22:03:05.086Z,14.90
2022-10-20T22:08:08.630Z,11.10
2022-10-20T22:13:11.535Z,16.70
2022-10-20T22:18:14.337Z,12.50
2022-10-20T22:23:17.451Z,11.10
2022-10-20T22:28:20.347Z,11.20
2022-10-20T22:33:23.662Z,9.20
2022-10-20T22:38:26.574Z,9.90
2022-10-20T22:43:31.744Z,16.00
2022-10-20T22:48:35.549Z,14.60
2022-10-20T22:53:39.188Z,16.30
2022-10-20T22:58:43.000Z,16.80
2022-10-20T23:03:47.288Z,17.50
2022-10-20T23:08:54.279Z,15.00
2022-10-20T23:13:57.537Z,11.70
2022-10-20T23:19:00.441Z,7.10
2022-10-20T23:24:03.447Z,10.60
2022-10-20T23:29:06.356Z,9.50
2022-10-20T23:34:09.875Z,8.20
2022-10-20T23:39:12.779Z,10.40
2022-10-20T23:44:15.682Z,10.40
2022-10-20T23:49:18.583Z,10.10
2022-10-20T23:54:21.594Z,9.80
2022-10-20T23:59:24.496Z,9.30
